sensor_id;sensor_type;location;lat;lon;timestamp;temperature;humidity
40808;DHT22;26523;52.504;13.498;2022-08-05T00:01:29;24.90;72.00
40808;DHT22;26523;52.504;13.498;2022-08-05T00:03:55;24.90;72.10
40808;DHT22;26523;52.504;13.498;2022-08-05T00:06:21;24.90;72.30
40808;DHT22;26523;52.504;13.498;2022-08-05T00:08:46;24.80;72.90
40808;DHT22;26523;52.504;13.498;2022-08-05T00:11:13;24.80;72.30
40808;DHT22;26523;52.504;13.498;2022-08-05T00:13:41;24.80;72.70
40808;DHT22;26523;52.504;13.498;2022-08-05T00:16:12;24.80;73.80
40808;DHT22;26523;52.504;13.498;2022-08-05T00:18:40;24.80;73.30
40808;DHT22;26523;52.504;13.498;2022-08-05T00:21:06;24.70;73.30
40808;DHT22;26523;52.504;13.498;2022-08-05T00:23:31;24.70;73.20
40808;DHT22;26523;52.504;13.498;2022-08-05T00:25:57;24.80;73.20
40808;DHT22;26523;52.504;13.498;2022-08-05T00:28:22;24.70;73.40
40808;DHT22;26523;52.504;13.498;2022-08-05T00:30:48;24.60;73.90
40808;DHT22;26523;52.504;13.498;2022-08-05T00:33:15;24.60;74.00
40808;DHT22;26523;52.504;13.498;2022-08-05T00:35:41;24.60;74.30
40808;DHT22;26523;52.504;13.498;2022-08-05T00:38:07;24.50;74.20
40808;DHT22;26523;52.504;13.498;2022-08-05T00:40:33;24.60;74.30
40808;DHT22;26523;52.504;13.498;2022-08-05T00:43:03;24.60;74.40
40808;DHT22;26523;52.504;13.498;2022-08-05T00:45:29;24.40;74.60
40808;DHT22;26523;52.504;13.498;2022-08-05T00:47:56;24.40;74.70
40808;DHT22;26523;52.504;13.498;2022-08-05T00:50:22;24.40;75.20
40808;DHT22;26523;52.504;13.498;2022-08-05T00:52:47;24.30;75.30
40808;DHT22;26523;52.504;13.498;2022-08-05T00:55:13;24.20;75.70
40808;DHT22;26523;52.504;13.498;2022-08-05T00:57:39;24.10;75.60
40808;DHT22;26523;52.504;13.498;2022-08-05T01:00:05;24.10;75.80
40808;DHT22;26523;52.504;13.498;2022-08-05T01:02:31;24.00;75.90
40808;DHT22;26523;52.504;13.498;2022-08-05T01:05:00;24.00;76.30
40808;DHT22;26523;52.504;13.498;2022-08-05T01:07:25;24.00;76.70
40808;DHT22;26523;52.504;13.498;2022-08-05T01:09:51;23.90;77.20
40808;DHT22;26523;52.504;13.498;2022-08-05T01:12:19;23.90;77.40
40808;DHT22;26523;52.504;13.498;2022-08-05T01:17:44;23.90;77.70
40808;DHT22;26523;52.504;13.498;2022-08-05T01:23:28;23.80;77.70
40808;DHT22;26523;52.504;13.498;2022-08-05T01:29:04;23.80;78.20
40808;DHT22;26523;52.504;13.498;2022-08-05T01:31:51;23.80;78.30
40808;DHT22;26523;52.504;13.498;2022-08-05T01:34:29;23.70;78.50
40808;DHT22;26523;52.504;13.498;2022-08-05T01:37:13;23.70;78.80
40808;DHT22;26523;52.504;13.498;2022-08-05T01:39:44;23.80;79.00
40808;DHT22;26523;52.504;13.498;2022-08-05T01:42:13;23.70;78.90
40808;DHT22;26523;52.504;13.498;2022-08-05T01:44:39;23.60;79.20
40808;DHT22;26523;52.504;13.498;2022-08-05T01:47:05;23.50;79.30
40808;DHT22;26523;52.504;13.498;2022-08-05T01:49:32;23.40;79.70
40808;DHT22;26523;52.504;13.498;2022-08-05T01:52:01;23.30;79.90
40808;DHT22;26523;52.504;13.498;2022-08-05T01:54:34;23.30;80.30
40808;DHT22;26523;52.504;13.498;2022-08-05T01:57:01;23.30;80.80
40808;DHT22;26523;52.504;13.498;2022-08-05T01:59:29;23.20;81.20
40808;DHT22;26523;52.504;13.498;2022-08-05T02:01:57;23.20;81.10
40808;DHT22;26523;52.504;13.498;2022-08-05T02:04:27;23.20;81.70
40808;DHT22;26523;52.504;13.498;2022-08-05T02:06:54;23.10;81.60
40808;DHT22;26523;52.504;13.498;2022-08-05T02:09:20;23.10;82.10
40808;DHT22;26523;52.504;13.498;2022-08-05T02:12:11;23.20;81.70
40808;DHT22;26523;52.504;13.498;2022-08-05T02:14:43;23.10;81.40
40808;DHT22;26523;52.504;13.498;2022-08-05T02:17:24;23.10;81.40
40808;DHT22;26523;52.504;13.498;2022-08-05T02:19:55;23.10;81.00
40808;DHT22;26523;52.504;13.498;2022-08-05T02:22:33;23.20;80.90
40808;DHT22;26523;52.504;13.498;2022-08-05T02:25:25;23.20;81.00
40808;DHT22;26523;52.504;13.498;2022-08-05T02:27:54;23.20;80.80
40808;DHT22;26523;52.504;13.498;2022-08-05T02:30:21;23.10;80.90
40808;DHT22;26523;52.504;13.498;2022-08-05T02:32:51;23.10;81.30
40808;DHT22;26523;52.504;13.498;2022-08-05T02:35:19;23.10;81.50
40808;DHT22;26523;52.504;13.498;2022-08-05T02:37:48;23.10;81.90
40808;DHT22;26523;52.504;13.498;2022-08-05T02:40:16;23.00;82.00
40808;DHT22;26523;52.504;13.498;2022-08-05T02:42:42;23.00;81.80
40808;DHT22;26523;52.504;13.498;2022-08-05T02:45:10;23.00;81.90
40808;DHT22;26523;52.504;13.498;2022-08-05T02:47:37;23.00;82.70
40808;DHT22;26523;52.504;13.498;2022-08-05T02:50:04;22.90;82.40
40808;DHT22;26523;52.504;13.498;2022-08-05T02:52:31;22.90;82.60
40808;DHT22;26523;52.504;13.498;2022-08-05T02:54:59;22.80;83.10
40808;DHT22;26523;52.504;13.498;2022-08-05T02:57:26;22.80;83.30
40808;DHT22;26523;52.504;13.498;2022-08-05T02:59:52;22.80;83.50
40808;DHT22;26523;52.504;13.498;2022-08-05T03:02:20;22.80;83.70
40808;DHT22;26523;52.504;13.498;2022-08-05T03:04:48;22.90;83.90
40808;DHT22;26523;52.504;13.498;2022-08-05T03:07:15;22.80;84.30
40808;DHT22;26523;52.504;13.498;2022-08-05T03:09:42;22.90;84.70
40808;DHT22;26523;52.504;13.498;2022-08-05T03:12:08;22.80;84.90
40808;DHT22;26523;52.504;13.498;2022-08-05T03:14:34;22.80;85.50
40808;DHT22;26523;52.504;13.498;2022-08-05T03:17:00;22.90;85.90
40808;DHT22;26523;52.504;13.498;2022-08-05T03:19:26;22.90;86.30
40808;DHT22;26523;52.504;13.498;2022-08-05T03:21:51;22.90;87.20
40808;DHT22;26523;52.504;13.498;2022-08-05T03:24:20;22.80;88.00
40808;DHT22;26523;52.504;13.498;2022-08-05T03:26:47;22.80;89.20
40808;DHT22;26523;52.504;13.498;2022-08-05T03:29:13;22.70;90.20
40808;DHT22;26523;52.504;13.498;2022-08-05T03:31:39;22.70;91.00
40808;DHT22;26523;52.504;13.498;2022-08-05T03:34:05;22.60;91.60
40808;DHT22;26523;52.504;13.498;2022-08-05T03:36:31;22.60;92.60
40808;DHT22;26523;52.504;13.498;2022-08-05T03:38:57;22.60;93.30
40808;DHT22;26523;52.504;13.498;2022-08-05T03:41:22;22.70;94.10
40808;DHT22;26523;52.504;13.498;2022-08-05T03:43:48;22.70;94.80
40808;DHT22;26523;52.504;13.498;2022-08-05T03:46:14;22.60;95.60
40808;DHT22;26523;52.504;13.498;2022-08-05T03:48:39;22.60;96.30
40808;DHT22;26523;52.504;13.498;2022-08-05T03:56:28;22.60;98.20
40808;DHT22;26523;52.504;13.498;2022-08-05T03:58:56;22.60;98.70
40808;DHT22;26523;52.504;13.498;2022-08-05T04:01:24;22.50;99.00
40808;DHT22;26523;52.504;13.498;2022-08-05T04:03:51;22.50;99.60
40808;DHT22;26523;52.504;13.498;2022-08-05T04:06:18;22.50;99.90
40808;DHT22;26523;52.504;13.498;2022-08-05T04:08:44;22.50;99.90
40808;DHT22;26523;52.504;13.498;2022-08-05T04:11:10;22.60;99.90
40808;DHT22;26523;52.504;13.498;2022-08-05T04:13:40;22.60;99.90
40808;DHT22;26523;52.504;13.498;2022-08-05T04:16:09;22.70;99.90
40808;DHT22;26523;52.504;13.498;2022-08-05T04:18:37;22.70;99.90
40808;DHT22;26523;52.504;13.498;2022-08-05T04:21:04;22.70;99.90
40808;DHT22;26523;52.504;13.498;2022-08-05T04:23:30;22.70;99.90
40808;DHT22;26523;52.504;13.498;2022-08-05T04:25:57;22.70;99.90
40808;DHT22;26523;52.504;13.498;2022-08-05T04:28:22;22.90;99.90
40808;DHT22;26523;52.504;13.498;2022-08-05T04:30:48;23.00;99.90
40808;DHT22;26523;52.504;13.498;2022-08-05T04:33:15;23.00;99.90
40808;DHT22;26523;52.504;13.498;2022-08-05T04:35:41;23.10;99.90
40808;DHT22;26523;52.504;13.498;2022-08-05T04:38:08;23.20;99.90
40808;DHT22;26523;52.504;13.498;2022-08-05T04:40:38;23.20;99.90
40808;DHT22;26523;52.504;13.498;2022-08-05T04:43:04;23.20;99.90
40808;DHT22;26523;52.504;13.498;2022-08-05T04:45:30;23.40;99.90
40808;DHT22;26523;52.504;13.498;2022-08-05T04:48:03;23.50;99.90
40808;DHT22;26523;52.504;13.498;2022-08-05T04:50:29;23.70;99.90
40808;DHT22;26523;52.504;13.498;2022-08-05T04:52:55;23.80;99.90
40808;DHT22;26523;52.504;13.498;2022-08-05T04:55:20;24.00;99.90
40808;DHT22;26523;52.504;13.498;2022-08-05T04:57:46;24.10;99.90
40808;DHT22;26523;52.504;13.498;2022-08-05T05:00:12;24.30;99.90
40808;DHT22;26523;52.504;13.498;2022-08-05T05:02:38;24.40;99.60
40808;DHT22;26523;52.504;13.498;2022-08-05T05:05:04;24.60;99.10
40808;DHT22;26523;52.504;13.498;2022-08-05T05:07:30;24.90;98.60
40808;DHT22;26523;52.504;13.498;2022-08-05T05:09:56;25.00;98.40
40808;DHT22;26523;52.504;13.498;2022-08-05T05:12:22;25.20;98.00
40808;DHT22;26523;52.504;13.498;2022-08-05T05:14:48;25.30;97.70
40808;DHT22;26523;52.504;13.498;2022-08-05T05:17:14;25.40;97.70
40808;DHT22;26523;52.504;13.498;2022-08-05T05:19:40;25.40;97.60
40808;DHT22;26523;52.504;13.498;2022-08-05T05:22:06;25.10;97.90
40808;DHT22;26523;52.504;13.498;2022-08-05T05:24:32;25.10;98.30
40808;DHT22;26523;52.504;13.498;2022-08-05T05:26:57;24.90;98.70
40808;DHT22;26523;52.504;13.498;2022-08-05T05:29:23;24.80;99.30
40808;DHT22;26523;52.504;13.498;2022-08-05T05:31:49;24.60;99.90
40808;DHT22;26523;52.504;13.498;2022-08-05T05:34:14;24.70;99.90
40808;DHT22;26523;52.504;13.498;2022-08-05T05:36:40;24.80;99.90
40808;DHT22;26523;52.504;13.498;2022-08-05T05:39:06;24.90;99.90
40808;DHT22;26523;52.504;13.498;2022-08-05T05:41:31;24.90;99.90
40808;DHT22;26523;52.504;13.498;2022-08-05T05:43:57;25.10;99.60
40808;DHT22;26523;52.504;13.498;2022-08-05T05:46:24;25.30;99.00
40808;DHT22;26523;52.504;13.498;2022-08-05T05:48:50;25.50;98.60
40808;DHT22;26523;52.504;13.498;2022-08-05T05:51:22;25.70;97.80
40808;DHT22;26523;52.504;13.498;2022-08-05T05:53:50;25.90;97.50
40808;DHT22;26523;52.504;13.498;2022-08-05T05:56:16;25.80;97.40
40808;DHT22;26523;52.504;13.498;2022-08-05T05:58:41;25.90;97.40
40808;DHT22;26523;52.504;13.498;2022-08-05T06:01:07;26.00;97.50
40808;DHT22;26523;52.504;13.498;2022-08-05T06:03:32;25.90;97.70
40808;DHT22;26523;52.504;13.498;2022-08-05T06:05:58;26.10;97.20
40808;DHT22;26523;52.504;13.498;2022-08-05T06:08:24;26.10;97.20
40808;DHT22;26523;52.504;13.498;2022-08-05T06:10:49;26.10;97.00
40808;DHT22;26523;52.504;13.498;2022-08-05T06:13:15;26.00;96.80
40808;DHT22;26523;52.504;13.498;2022-08-05T06:15:40;26.00;97.00
40808;DHT22;26523;52.504;13.498;2022-08-05T06:18:06;26.00;97.20
40808;DHT22;26523;52.504;13.498;2022-08-05T06:20:32;25.90;97.30
40808;DHT22;26523;52.504;13.498;2022-08-05T06:22:57;26.00;96.90
40808;DHT22;26523;52.504;13.498;2022-08-05T06:25:24;26.20;96.80
40808;DHT22;26523;52.504;13.498;2022-08-05T06:27:49;26.30;96.40
40808;DHT22;26523;52.504;13.498;2022-08-05T06:30:15;26.50;96.30
40808;DHT22;26523;52.504;13.498;2022-08-05T06:32:42;26.50;96.40
40808;DHT22;26523;52.504;13.498;2022-08-05T06:35:08;26.50;96.60
40808;DHT22;26523;52.504;13.498;2022-08-05T06:37:34;26.70;96.30
40808;DHT22;26523;52.504;13.498;2022-08-05T06:39:59;27.40;95.40
40808;DHT22;26523;52.504;13.498;2022-08-05T06:42:25;27.90;93.90
40808;DHT22;26523;52.504;13.498;2022-08-05T06:44:50;28.10;93.10
40808;DHT22;26523;52.504;13.498;2022-08-05T06:47:16;29.50;91.50
40808;DHT22;26523;52.504;13.498;2022-08-05T06:49:42;30.80;86.90
40808;DHT22;26523;52.504;13.498;2022-08-05T06:52:10;32.00;82.80
40808;DHT22;26523;52.504;13.498;2022-08-05T06:54:36;33.10;77.80
40808;DHT22;26523;52.504;13.498;2022-08-05T06:57:03;33.60;74.60
40808;DHT22;26523;52.504;13.498;2022-08-05T06:59:28;34.10;71.90
40808;DHT22;26523;52.504;13.498;2022-08-05T07:01:54;34.40;71.10
40808;DHT22;26523;52.504;13.498;2022-08-05T07:04:19;34.30;69.90
40808;DHT22;26523;52.504;13.498;2022-08-05T07:06:45;33.60;71.40
40808;DHT22;26523;52.504;13.498;2022-08-05T07:09:11;33.00;72.20
40808;DHT22;26523;52.504;13.498;2022-08-05T07:11:36;33.40;71.90
40808;DHT22;26523;52.504;13.498;2022-08-05T07:14:02;33.70;70.50
40808;DHT22;26523;52.504;13.498;2022-08-05T07:16:47;32.90;71.50
40808;DHT22;26523;52.504;13.498;2022-08-05T07:19:13;32.60;72.60
40808;DHT22;26523;52.504;13.498;2022-08-05T07:21:39;32.30;73.00
40808;DHT22;26523;52.504;13.498;2022-08-05T07:24:05;31.70;74.30
40808;DHT22;26523;52.504;13.498;2022-08-05T07:26:31;31.20;75.40
40808;DHT22;26523;52.504;13.498;2022-08-05T07:28:57;31.30;75.60
40808;DHT22;26523;52.504;13.498;2022-08-05T07:31:34;31.40;75.50
40808;DHT22;26523;52.504;13.498;2022-08-05T07:34:00;31.40;75.20
40808;DHT22;26523;52.504;13.498;2022-08-05T07:36:27;31.20;76.40
40808;DHT22;26523;52.504;13.498;2022-08-05T07:38:53;31.20;76.70
40808;DHT22;26523;52.504;13.498;2022-08-05T07:41:20;30.60;77.50
40808;DHT22;26523;52.504;13.498;2022-08-05T07:43:46;30.30;78.80
40808;DHT22;26523;52.504;13.498;2022-08-05T07:46:12;29.90;79.80
40808;DHT22;26523;52.504;13.498;2022-08-05T07:48:38;30.10;79.60
40808;DHT22;26523;52.504;13.498;2022-08-05T07:51:04;30.00;79.10
40808;DHT22;26523;52.504;13.498;2022-08-05T07:53:29;29.70;79.90
40808;DHT22;26523;52.504;13.498;2022-08-05T07:55:55;29.40;80.70
40808;DHT22;26523;52.504;13.498;2022-08-05T07:58:21;29.40;80.70
40808;DHT22;26523;52.504;13.498;2022-08-05T08:00:46;29.10;80.90
40808;DHT22;26523;52.504;13.498;2022-08-05T08:03:13;29.00;81.40
40808;DHT22;26523;52.504;13.498;2022-08-05T08:05:39;29.00;81.20
40808;DHT22;26523;52.504;13.498;2022-08-05T08:08:12;28.80;82.00
40808;DHT22;26523;52.504;13.498;2022-08-05T08:10:38;28.70;81.80
40808;DHT22;26523;52.504;13.498;2022-08-05T08:13:05;28.40;82.40
40808;DHT22;26523;52.504;13.498;2022-08-05T08:15:31;28.30;82.90
40808;DHT22;26523;52.504;13.498;2022-08-05T08:17:56;28.10;83.20
40808;DHT22;26523;52.504;13.498;2022-08-05T08:20:23;27.80;84.20
40808;DHT22;26523;52.504;13.498;2022-08-05T08:22:50;27.60;84.60
40808;DHT22;26523;52.504;13.498;2022-08-05T08:25:16;27.60;84.60
40808;DHT22;26523;52.504;13.498;2022-08-05T08:27:42;27.40;85.20
40808;DHT22;26523;52.504;13.498;2022-08-05T08:30:09;27.40;85.70
40808;DHT22;26523;52.504;13.498;2022-08-05T08:32:38;27.40;85.20
40808;DHT22;26523;52.504;13.498;2022-08-05T08:35:05;27.70;85.30
40808;DHT22;26523;52.504;13.498;2022-08-05T08:37:30;27.40;84.60
40808;DHT22;26523;52.504;13.498;2022-08-05T08:39:56;27.50;85.00
40808;DHT22;26523;52.504;13.498;2022-08-05T08:42:22;27.60;84.90
40808;DHT22;26523;52.504;13.498;2022-08-05T08:44:48;27.50;84.70
40808;DHT22;26523;52.504;13.498;2022-08-05T08:47:15;27.30;84.90
40808;DHT22;26523;52.504;13.498;2022-08-05T08:49:44;27.20;85.40
40808;DHT22;26523;52.504;13.498;2022-08-05T08:52:12;27.00;85.80
40808;DHT22;26523;52.504;13.498;2022-08-05T08:54:38;27.00;86.20
40808;DHT22;26523;52.504;13.498;2022-08-05T08:57:05;26.80;86.80
40808;DHT22;26523;52.504;13.498;2022-08-05T08:59:32;26.70;87.20
40808;DHT22;26523;52.504;13.498;2022-08-05T09:01:59;26.60;87.60
40808;DHT22;26523;52.504;13.498;2022-08-05T09:04:26;26.60;88.40
40808;DHT22;26523;52.504;13.498;2022-08-05T09:06:52;26.50;90.40
40808;DHT22;26523;52.504;13.498;2022-08-05T09:09:17;26.30;91.30
40808;DHT22;26523;52.504;13.498;2022-08-05T09:11:43;26.10;91.70
40808;DHT22;26523;52.504;13.498;2022-08-05T09:14:10;25.90;92.30
40808;DHT22;26523;52.504;13.498;2022-08-05T09:16:38;25.90;92.70
40808;DHT22;26523;52.504;13.498;2022-08-05T09:19:03;25.90;93.00
40808;DHT22;26523;52.504;13.498;2022-08-05T09:21:29;25.90;93.10
40808;DHT22;26523;52.504;13.498;2022-08-05T09:24:03;26.00;93.50
40808;DHT22;26523;52.504;13.498;2022-08-05T09:26:29;26.00;93.20
40808;DHT22;26523;52.504;13.498;2022-08-05T09:28:59;26.20;93.10
40808;DHT22;26523;52.504;13.498;2022-08-05T09:31:25;26.30;93.20
40808;DHT22;26523;52.504;13.498;2022-08-05T09:34:00;26.50;93.10
40808;DHT22;26523;52.504;13.498;2022-08-05T09:36:47;26.60;92.80
40808;DHT22;26523;52.504;13.498;2022-08-05T09:39:18;26.80;92.60
40808;DHT22;26523;52.504;13.498;2022-08-05T09:41:58;26.80;92.30
40808;DHT22;26523;52.504;13.498;2022-08-05T09:44:42;26.80;91.90
40808;DHT22;26523;52.504;13.498;2022-08-05T09:49:34;26.70;92.20
40808;DHT22;26523;52.504;13.498;2022-08-05T10:00:03;26.10;92.50
40808;DHT22;26523;52.504;13.498;2022-08-05T10:02:38;25.90;92.40
40808;DHT22;26523;52.504;13.498;2022-08-05T10:05:10;25.60;93.10
40808;DHT22;26523;52.504;13.498;2022-08-05T10:08:03;25.10;94.10
40808;DHT22;26523;52.504;13.498;2022-08-05T10:10:47;24.90;94.90
40808;DHT22;26523;52.504;13.498;2022-08-05T10:13:35;25.00;95.30
40808;DHT22;26523;52.504;13.498;2022-08-05T10:16:06;25.00;96.10
40808;DHT22;26523;52.504;13.498;2022-08-05T10:18:33;24.60;97.80
40808;DHT22;26523;52.504;13.498;2022-08-05T10:21:03;24.40;99.90
40808;DHT22;26523;52.504;13.498;2022-08-05T10:23:32;24.30;99.90
40808;DHT22;26523;52.504;13.498;2022-08-05T10:26:01;24.30;99.90
40808;DHT22;26523;52.504;13.498;2022-08-05T10:28:28;24.30;99.90
40808;DHT22;26523;52.504;13.498;2022-08-05T10:30:57;24.20;99.90
40808;DHT22;26523;52.504;13.498;2022-08-05T10:33:25;24.10;99.90
40808;DHT22;26523;52.504;13.498;2022-08-05T10:35:52;24.50;99.90
40808;DHT22;26523;52.504;13.498;2022-08-05T10:38:22;25.00;99.90
40808;DHT22;26523;52.504;13.498;2022-08-05T10:44:33;25.60;99.90
40808;DHT22;26523;52.504;13.498;2022-08-05T10:46:51;25.90;99.90
40808;DHT22;26523;52.504;13.498;2022-08-05T10:49:17;25.90;99.90
40808;DHT22;26523;52.504;13.498;2022-08-05T10:51:46;25.80;99.90
40808;DHT22;26523;52.504;13.498;2022-08-05T10:54:12;25.60;99.90
40808;DHT22;26523;52.504;13.498;2022-08-05T10:56:47;25.30;99.90
40808;DHT22;26523;52.504;13.498;2022-08-05T10:59:18;25.20;99.90
40808;DHT22;26523;52.504;13.498;2022-08-05T11:01:44;24.90;99.90
40808;DHT22;26523;52.504;13.498;2022-08-05T11:04:12;24.70;99.90
40808;DHT22;26523;52.504;13.498;2022-08-05T11:09:43;24.60;99.90
40808;DHT22;26523;52.504;13.498;2022-08-05T11:15:17;24.80;99.90
40808;DHT22;26523;52.504;13.498;2022-08-05T11:17:45;24.80;99.90
40808;DHT22;26523;52.504;13.498;2022-08-05T11:20:40;24.70;99.90
40808;DHT22;26523;52.504;13.498;2022-08-05T11:23:33;24.80;99.90
40808;DHT22;26523;52.504;13.498;2022-08-05T11:26:10;25.10;99.90
40808;DHT22;26523;52.504;13.498;2022-08-05T11:33:32;26.40;99.90
40808;DHT22;26523;52.504;13.498;2022-08-05T11:41:13;27.10;99.90
40808;DHT22;26523;52.504;13.498;2022-08-05T11:43:44;27.30;99.90
40808;DHT22;26523;52.504;13.498;2022-08-05T11:46:17;27.20;99.90
40808;DHT22;26523;52.504;13.498;2022-08-05T11:48:49;27.20;99.90
40808;DHT22;26523;52.504;13.498;2022-08-05T11:51:15;27.20;99.90
40808;DHT22;26523;52.504;13.498;2022-08-05T11:53:41;27.30;99.90
40808;DHT22;26523;52.504;13.498;2022-08-05T11:56:07;27.40;99.90
40808;DHT22;26523;52.504;13.498;2022-08-05T11:58:38;27.60;99.90
40808;DHT22;26523;52.504;13.498;2022-08-05T12:01:14;27.60;99.90
40808;DHT22;26523;52.504;13.498;2022-08-05T12:03:43;27.60;99.90
40808;DHT22;26523;52.504;13.498;2022-08-05T12:06:10;27.60;99.50
40808;DHT22;26523;52.504;13.498;2022-08-05T12:08:41;27.70;99.00
40808;DHT22;26523;52.504;13.498;2022-08-05T12:11:08;27.70;98.60
40808;DHT22;26523;52.504;13.498;2022-08-05T12:13:36;27.80;97.90
40808;DHT22;26523;52.504;13.498;2022-08-05T12:16:03;27.90;97.20
40808;DHT22;26523;52.504;13.498;2022-08-05T12:18:34;27.80;96.80
40808;DHT22;26523;52.504;13.498;2022-08-05T12:23:35;27.90;96.50
40808;DHT22;26523;52.504;13.498;2022-08-05T12:26:01;28.00;96.30
40808;DHT22;26523;52.504;13.498;2022-08-05T12:28:32;28.00;96.00
40808;DHT22;26523;52.504;13.498;2022-08-05T12:30:57;28.10;96.10
40808;DHT22;26523;52.504;13.498;2022-08-05T12:33:24;28.20;95.40
40808;DHT22;26523;52.504;13.498;2022-08-05T12:35:52;28.20;95.20
40808;DHT22;26523;52.504;13.498;2022-08-05T12:38:18;28.20;95.40
40808;DHT22;26523;52.504;13.498;2022-08-05T12:40:43;28.20;95.30
40808;DHT22;26523;52.504;13.498;2022-08-05T12:43:09;28.10;95.00
40808;DHT22;26523;52.504;13.498;2022-08-05T12:45:35;28.10;94.90
40808;DHT22;26523;52.504;13.498;2022-08-05T12:48:13;27.90;95.40
40808;DHT22;26523;52.504;13.498;2022-08-05T12:50:38;27.60;95.40
40808;DHT22;26523;52.504;13.498;2022-08-05T12:53:04;27.60;95.60
40808;DHT22;26523;52.504;13.498;2022-08-05T12:55:30;27.50;95.60
40808;DHT22;26523;52.504;13.498;2022-08-05T12:57:57;27.40;95.90
40808;DHT22;26523;52.504;13.498;2022-08-05T13:00:25;27.50;96.00
40808;DHT22;26523;52.504;13.498;2022-08-05T13:02:52;27.50;95.90
40808;DHT22;26523;52.504;13.498;2022-08-05T13:05:19;27.60;95.70
40808;DHT22;26523;52.504;13.498;2022-08-05T13:07:45;27.50;95.50
40808;DHT22;26523;52.504;13.498;2022-08-05T13:10:12;27.50;95.60
40808;DHT22;26523;52.504;13.498;2022-08-05T13:12:39;27.60;95.50
40808;DHT22;26523;52.504;13.498;2022-08-05T13:15:08;27.40;95.60
40808;DHT22;26523;52.504;13.498;2022-08-05T13:17:34;27.50;95.60
40808;DHT22;26523;52.504;13.498;2022-08-05T13:20:10;27.50;95.60
40808;DHT22;26523;52.504;13.498;2022-08-05T13:22:38;27.60;95.40
40808;DHT22;26523;52.504;13.498;2022-08-05T13:25:09;27.60;94.90
40808;DHT22;26523;52.504;13.498;2022-08-05T13:27:39;27.60;95.20
40808;DHT22;26523;52.504;13.498;2022-08-05T13:30:10;27.50;94.70
40808;DHT22;26523;52.504;13.498;2022-08-05T13:32:36;27.80;94.20
40808;DHT22;26523;52.504;13.498;2022-08-05T13:35:02;27.90;94.00
40808;DHT22;26523;52.504;13.498;2022-08-05T13:37:28;27.90;93.70
40808;DHT22;26523;52.504;13.498;2022-08-05T13:39:54;27.90;93.80
40808;DHT22;26523;52.504;13.498;2022-08-05T13:42:21;27.80;93.80
40808;DHT22;26523;52.504;13.498;2022-08-05T13:44:52;27.80;93.90
40808;DHT22;26523;52.504;13.498;2022-08-05T13:47:22;27.70;93.80
40808;DHT22;26523;52.504;13.498;2022-08-05T13:49:49;27.60;93.90
40808;DHT22;26523;52.504;13.498;2022-08-05T13:52:22;27.60;93.80
40808;DHT22;26523;52.504;13.498;2022-08-05T13:54:50;27.60;93.70
40808;DHT22;26523;52.504;13.498;2022-08-05T13:57:16;27.60;93.60
40808;DHT22;26523;52.504;13.498;2022-08-05T13:59:42;27.30;94.00
40808;DHT22;26523;52.504;13.498;2022-08-05T14:02:11;27.20;94.00
40808;DHT22;26523;52.504;13.498;2022-08-05T14:04:42;27.30;93.70
40808;DHT22;26523;52.504;13.498;2022-08-05T14:07:34;27.40;93.70
40808;DHT22;26523;52.504;13.498;2022-08-05T14:10:00;27.50;93.70
40808;DHT22;26523;52.504;13.498;2022-08-05T14:12:26;27.70;93.40
40808;DHT22;26523;52.504;13.498;2022-08-05T14:14:52;27.70;93.20
40808;DHT22;26523;52.504;13.498;2022-08-05T14:17:17;27.80;93.00
40808;DHT22;26523;52.504;13.498;2022-08-05T14:19:44;27.90;92.90
40808;DHT22;26523;52.504;13.498;2022-08-05T14:22:09;27.90;92.80
40808;DHT22;26523;52.504;13.498;2022-08-05T14:24:35;28.10;92.40
40808;DHT22;26523;52.504;13.498;2022-08-05T14:27:02;28.20;92.20
40808;DHT22;26523;52.504;13.498;2022-08-05T14:29:28;28.30;91.60
40808;DHT22;26523;52.504;13.498;2022-08-05T14:31:54;28.50;91.40
40808;DHT22;26523;52.504;13.498;2022-08-05T14:34:34;28.60;91.10
40808;DHT22;26523;52.504;13.498;2022-08-05T14:37:03;28.60;90.90
40808;DHT22;26523;52.504;13.498;2022-08-05T14:39:29;28.40;91.00
40808;DHT22;26523;52.504;13.498;2022-08-05T14:41:55;27.90;91.70
40808;DHT22;26523;52.504;13.498;2022-08-05T14:44:21;27.60;92.00
40808;DHT22;26523;52.504;13.498;2022-08-05T14:46:46;27.60;92.30
40808;DHT22;26523;52.504;13.498;2022-08-05T14:49:12;27.60;92.30
40808;DHT22;26523;52.504;13.498;2022-08-05T14:51:39;27.60;92.70
40808;DHT22;26523;52.504;13.498;2022-08-05T14:54:05;27.50;93.20
40808;DHT22;26523;52.504;13.498;2022-08-05T14:56:32;27.50;93.60
40808;DHT22;26523;52.504;13.498;2022-08-05T14:58:58;27.50;94.20
40808;DHT22;26523;52.504;13.498;2022-08-05T15:01:24;27.50;94.70
40808;DHT22;26523;52.504;13.498;2022-08-05T15:03:50;27.70;94.40
40808;DHT22;26523;52.504;13.498;2022-08-05T15:06:16;27.60;94.10
40808;DHT22;26523;52.504;13.498;2022-08-05T15:08:44;27.50;94.50
40808;DHT22;26523;52.504;13.498;2022-08-05T15:11:10;27.30;94.90
40808;DHT22;26523;52.504;13.498;2022-08-05T15:13:36;27.20;95.30
40808;DHT22;26523;52.504;13.498;2022-08-05T15:16:02;27.10;95.40
40808;DHT22;26523;52.504;13.498;2022-08-05T15:18:28;27.00;95.60
40808;DHT22;26523;52.504;13.498;2022-08-05T15:20:53;26.90;95.70
40808;DHT22;26523;52.504;13.498;2022-08-05T15:23:19;26.80;96.20
40808;DHT22;26523;52.504;13.498;2022-08-05T15:25:45;26.70;96.60
40808;DHT22;26523;52.504;13.498;2022-08-05T15:28:12;26.60;97.00
40808;DHT22;26523;52.504;13.498;2022-08-05T15:30:38;26.50;97.30
40808;DHT22;26523;52.504;13.498;2022-08-05T15:33:04;26.40;97.60
40808;DHT22;26523;52.504;13.498;2022-08-05T15:35:30;26.30;98.00
40808;DHT22;26523;52.504;13.498;2022-08-05T15:37:56;26.20;98.30
40808;DHT22;26523;52.504;13.498;2022-08-05T15:40:22;26.10;98.60
40808;DHT22;26523;52.504;13.498;2022-08-05T15:42:48;26.00;98.90
40808;DHT22;26523;52.504;13.498;2022-08-05T15:45:14;26.00;99.20
40808;DHT22;26523;52.504;13.498;2022-08-05T15:47:41;26.00;99.40
40808;DHT22;26523;52.504;13.498;2022-08-05T15:50:08;26.00;99.60
40808;DHT22;26523;52.504;13.498;2022-08-05T15:52:34;26.00;99.60
40808;DHT22;26523;52.504;13.498;2022-08-05T15:55:01;25.90;99.90
40808;DHT22;26523;52.504;13.498;2022-08-05T15:57:28;25.90;99.90
40808;DHT22;26523;52.504;13.498;2022-08-05T15:59:53;25.80;99.90
40808;DHT22;26523;52.504;13.498;2022-08-05T16:02:19;25.80;99.90
40808;DHT22;26523;52.504;13.498;2022-08-05T16:04:46;26.00;99.90
40808;DHT22;26523;52.504;13.498;2022-08-05T16:07:11;26.00;99.90